createdAt,value
2018-07-31T00:01:06.477Z,85.90
2018-07-31T00:03:35.162Z,85.30
2018-07-31T00:06:03.785Z,84.90
2018-07-31T00:08:32.328Z,85.30
2018-07-31T00:11:01.563Z,85.00
2018-07-31T00:13:30.076Z,84.60
2018-07-31T00:15:58.683Z,84.40
2018-07-31T00:18:27.243Z,85.90
2018-07-31T00:20:55.743Z,86.00
2018-07-31T00:25:52.557Z,86.10
2018-07-31T00:28:21.020Z,86.60
2018-07-31T00:30:49.515Z,86.50
2018-07-31T00:33:17.942Z,86.50
2018-07-31T00:35:46.534Z,86.20
2018-07-31T00:38:14.999Z,86.00
2018-07-31T00:40:43.468Z,87.10
2018-07-31T00:43:11.958Z,86.70
2018-07-31T00:45:40.439Z,86.60
2018-07-31T00:48:08.970Z,86.80
2018-07-31T00:50:37.387Z,87.30
2018-07-31T00:53:05.946Z,87.30
2018-07-31T00:55:34.562Z,87.50
2018-07-31T00:58:03.112Z,87.80
2018-07-31T01:00:31.850Z,87.90
2018-07-31T01:03:00.320Z,88.60
2018-07-31T01:05:28.808Z,88.00
2018-07-31T01:07:57.400Z,88.10
2018-07-31T01:10:25.988Z,88.30
2018-07-31T01:12:54.470Z,88.40
2018-07-31T01:15:22.954Z,88.40
2018-07-31T01:17:51.434Z,88.90
2018-07-31T01:20:19.940Z,88.70
2018-07-31T01:22:48.495Z,88.70
2018-07-31T01:25:16.956Z,88.70
2018-07-31T01:27:45.461Z,88.30
2018-07-31T01:30:13.957Z,88.50
2018-07-31T01:35:10.536Z,88.90
2018-07-31T01:37:39.021Z,89.70
2018-07-31T01:40:07.497Z,89.20
2018-07-31T01:42:36.093Z,89.70
2018-07-31T01:45:04.681Z,90.50
2018-07-31T01:47:33.247Z,90.80
2018-07-31T01:50:01.702Z,91.40
2018-07-31T01:52:30.225Z,92.00
2018-07-31T01:54:58.691Z,92.00
2018-07-31T01:57:27.160Z,92.10
2018-07-31T01:59:55.650Z,92.10
2018-07-31T02:02:24.180Z,92.00
2018-07-31T02:04:52.635Z,92.10
2018-07-31T02:09:49.311Z,92.30
2018-07-31T02:12:17.783Z,92.10
2018-07-31T02:14:46.300Z,92.00
2018-07-31T02:17:14.848Z,91.90
2018-07-31T02:19:43.310Z,91.00
2018-07-31T02:22:11.812Z,90.80
2018-07-31T02:24:40.270Z,90.80
2018-07-31T02:27:08.744Z,90.80
2018-07-31T02:29:42.506Z,90.80
2018-07-31T02:32:10.998Z,90.70
2018-07-31T02:34:39.486Z,90.70
2018-07-31T02:39:36.252Z,90.70
2018-07-31T02:42:04.798Z,91.20
2018-07-31T02:44:33.308Z,90.80
2018-07-31T02:47:01.900Z,90.80
2018-07-31T02:49:30.431Z,90.80
2018-07-31T02:51:58.984Z,90.60
2018-07-31T02:54:27.441Z,90.70
2018-07-31T02:56:55.949Z,90.80
2018-07-31T02:59:24.471Z,90.90
2018-07-31T03:01:52.946Z,91.00
2018-07-31T03:04:21.634Z,91.10
2018-07-31T03:06:50.235Z,91.10
2018-07-31T03:09:18.671Z,91.30
2018-07-31T03:11:47.181Z,91.40
2018-07-31T03:14:15.793Z,91.60
2018-07-31T03:16:44.275Z,91.50
2018-07-31T03:19:12.775Z,91.90
2018-07-31T03:21:41.242Z,91.90
2018-07-31T03:24:09.715Z,92.10
2018-07-31T03:26:38.323Z,92.30
2018-07-31T03:29:06.840Z,92.50
2018-07-31T03:31:35.457Z,92.70
2018-07-31T03:34:04.071Z,92.80
2018-07-31T03:36:32.654Z,92.90
2018-07-31T03:39:01.272Z,93.30
2018-07-31T03:41:29.717Z,93.60
2018-07-31T03:43:58.194Z,93.90
2018-07-31T03:46:26.708Z,94.40
2018-07-31T03:48:55.206Z,95.00
2018-07-31T03:51:23.692Z,95.10
2018-07-31T03:53:52.206Z,95.40
2018-07-31T03:56:20.687Z,95.30
2018-07-31T03:58:49.473Z,95.60
2018-07-31T04:01:18.150Z,95.90
2018-07-31T04:03:46.696Z,96.00
2018-07-31T04:08:43.347Z,96.30
2018-07-31T04:11:11.843Z,96.50
2018-07-31T04:13:40.363Z,96.50
2018-07-31T04:19:06.176Z,96.90
2018-07-31T04:24:08.942Z,97.10
2018-07-31T04:26:39.054Z,97.10
2018-07-31T04:29:09.294Z,97.10
2018-07-31T04:31:40.295Z,97.40
2018-07-31T04:34:08.783Z,97.50
2018-07-31T04:36:37.272Z,97.60
2018-07-31T04:39:09.923Z,98.40
2018-07-31T04:41:38.367Z,98.50
2018-07-31T04:44:07.314Z,98.50
2018-07-31T04:46:35.914Z,98.90
2018-07-31T04:49:04.672Z,99.00
2018-07-31T04:51:33.212Z,99.10
2018-07-31T04:54:02.194Z,99.40
2018-07-31T04:56:31.632Z,99.40
2018-07-31T04:59:00.083Z,99.40
2018-07-31T05:01:28.622Z,99.50
2018-07-31T05:03:57.188Z,99.60
2018-07-31T05:06:26.378Z,99.60
2018-07-31T05:08:54.884Z,99.60
2018-07-31T05:11:23.498Z,99.70
2018-07-31T05:13:52.050Z,99.70
2018-07-31T05:16:20.606Z,99.60
2018-07-31T05:18:49.062Z,99.90
2018-07-31T05:21:17.587Z,99.90
2018-07-31T05:23:46.252Z,99.60
2018-07-31T05:26:15.726Z,99.80
2018-07-31T05:28:44.260Z,99.70
2018-07-31T05:31:12.730Z,99.80
2018-07-31T05:36:09.414Z,99.40
2018-07-31T05:38:37.887Z,98.90
2018-07-31T05:43:35.410Z,99.30
2018-07-31T05:46:10.501Z,99.40
2018-07-31T05:51:07.150Z,99.50
2018-07-31T05:53:36.644Z,99.70
2018-07-31T05:56:05.448Z,99.80
2018-07-31T06:01:02.180Z,99.80
2018-07-31T06:03:30.931Z,98.30
2018-07-31T06:05:59.425Z,98.30
2018-07-31T06:08:28.539Z,98.40
2018-07-31T06:10:57.111Z,98.70
2018-07-31T06:13:25.614Z,98.30
2018-07-31T06:15:54.124Z,98.30
2018-07-31T06:18:22.611Z,98.70
2018-07-31T06:20:51.136Z,98.00
2018-07-31T06:23:19.609Z,97.60
2018-07-31T06:25:48.099Z,97.60
2018-07-31T06:28:16.761Z,97.80
2018-07-31T06:30:45.308Z,96.80
2018-07-31T06:33:13.789Z,96.60
2018-07-31T06:35:42.254Z,96.50
2018-07-31T06:38:10.733Z,97.50
2018-07-31T06:40:39.268Z,96.90
2018-07-31T06:43:08.141Z,95.80
2018-07-31T06:45:36.646Z,95.80
2018-07-31T06:48:05.127Z,96.80
2018-07-31T06:50:34.311Z,96.70
2018-07-31T06:53:02.787Z,96.60
2018-07-31T06:55:31.463Z,97.10
2018-07-31T06:58:00.153Z,96.50
2018-07-31T07:05:25.172Z,96.90
2018-07-31T07:07:53.686Z,96.60
2018-07-31T07:10:22.296Z,96.10
2018-07-31T07:12:50.890Z,93.20
2018-07-31T07:15:19.506Z,92.50
2018-07-31T07:17:47.968Z,93.60
2018-07-31T07:20:16.450Z,93.50
2018-07-31T07:22:44.938Z,93.60
2018-07-31T07:25:13.491Z,93.90
2018-07-31T07:27:41.977Z,93.30
2018-07-31T07:30:10.526Z,93.90
2018-07-31T07:32:39.049Z,94.10
2018-07-31T07:37:35.833Z,94.90
2018-07-31T07:42:32.515Z,93.20
2018-07-31T07:45:01.009Z,93.70
2018-07-31T07:47:29.587Z,93.70
2018-07-31T07:49:58.167Z,94.30
2018-07-31T07:52:26.652Z,94.10
2018-07-31T07:54:55.863Z,93.40
2018-07-31T07:57:24.344Z,93.50
2018-07-31T07:59:52.810Z,93.00
2018-07-31T08:02:21.409Z,92.90
2018-07-31T08:04:49.867Z,92.20
2018-07-31T08:07:19.332Z,92.90
2018-07-31T08:09:47.911Z,92.20
2018-07-31T08:12:16.491Z,92.10
2018-07-31T08:14:44.997Z,90.30
2018-07-31T08:17:13.480Z,90.60
2018-07-31T08:19:42.015Z,91.10
2018-07-31T08:22:11.453Z,90.20
2018-07-31T08:24:40.019Z,90.10
2018-07-31T08:27:08.566Z,89.80
2018-07-31T08:29:37.035Z,87.30
2018-07-31T08:32:05.588Z,89.00
2018-07-31T08:34:34.086Z,87.10
2018-07-31T08:37:02.583Z,88.10
2018-07-31T08:39:31.114Z,87.80
2018-07-31T08:41:59.609Z,88.20
2018-07-31T08:46:56.436Z,87.60
2018-07-31T08:49:25.005Z,85.60
2018-07-31T08:51:53.507Z,87.80
2018-07-31T08:54:21.985Z,85.20
2018-07-31T08:56:50.557Z,84.70
2018-07-31T08:59:19.005Z,84.40
2018-07-31T09:04:15.795Z,84.30
2018-07-31T09:06:44.278Z,86.00
2018-07-31T09:09:12.760Z,84.60
2018-07-31T09:11:41.359Z,82.00
2018-07-31T09:14:09.871Z,80.20
2018-07-31T09:16:38.938Z,75.50
2018-07-31T09:21:35.881Z,72.00
2018-07-31T09:24:04.599Z,77.20
2018-07-31T09:29:01.251Z,79.40
2018-07-31T09:31:29.996Z,80.10
2018-07-31T09:34:01.282Z,77.50
2018-07-31T09:38:58.759Z,78.20
2018-07-31T09:41:27.266Z,79.40
2018-07-31T09:43:55.742Z,77.90
2018-07-31T09:51:20.782Z,81.40
2018-07-31T09:56:17.595Z,81.00
2018-07-31T09:58:46.082Z,79.40
2018-07-31T10:01:18.577Z,81.30
2018-07-31T10:03:48.140Z,80.40
2018-07-31T10:06:17.592Z,78.20
2018-07-31T10:08:46.262Z,78.00
2018-07-31T10:11:14.882Z,77.60
2018-07-31T10:13:43.361Z,80.00
2018-07-31T10:16:11.875Z,78.60
2018-07-31T10:18:40.384Z,78.00
2018-07-31T10:21:08.910Z,76.50
2018-07-31T10:23:37.604Z,76.30
2018-07-31T10:26:06.172Z,76.00
2018-07-31T10:28:34.689Z,76.20
2018-07-31T10:31:03.256Z,73.20
2018-07-31T10:33:31.734Z,73.40
2018-07-31T10:36:00.202Z,74.80
2018-07-31T10:38:28.705Z,76.90
2018-07-31T10:40:57.150Z,74.20
2018-07-31T10:48:22.551Z,69.50
2018-07-31T10:50:51.055Z,73.70
2018-07-31T10:53:19.546Z,76.00
2018-07-31T10:55:48.093Z,75.00
2018-07-31T10:58:16.714Z,76.10
2018-07-31T11:03:13.528Z,70.70
2018-07-31T11:05:42.013Z,69.60
2018-07-31T11:08:10.622Z,69.70
2018-07-31T11:10:39.728Z,69.50
2018-07-31T11:13:08.326Z,70.20
2018-07-31T11:15:36.878Z,73.40
2018-07-31T11:18:05.539Z,70.30
2018-07-31T11:20:34.948Z,71.90
2018-07-31T11:23:03.501Z,70.80
2018-07-31T11:25:32.080Z,69.50
2018-07-31T11:28:00.614Z,68.00
2018-07-31T11:30:29.145Z,67.10
2018-07-31T11:32:57.825Z,66.00
2018-07-31T11:37:54.540Z,66.20
2018-07-31T11:40:23.110Z,66.50
2018-07-31T11:42:51.652Z,64.50
2018-07-31T11:45:20.132Z,64.60
2018-07-31T11:47:48.860Z,65.90
2018-07-31T11:50:17.350Z,67.50
2018-07-31T11:52:45.949Z,66.40
2018-07-31T11:55:14.508Z,63.40
2018-07-31T11:57:43.003Z,64.20
2018-07-31T12:00:12.875Z,61.50
2018-07-31T12:02:41.423Z,61.70
2018-07-31T12:05:09.949Z,62.20
2018-07-31T12:07:38.441Z,62.40
2018-07-31T12:10:07.173Z,60.70
2018-07-31T12:12:35.665Z,61.80
2018-07-31T12:15:04.863Z,62.80
2018-07-31T12:17:33.382Z,61.00
2018-07-31T12:20:01.918Z,61.90
2018-07-31T12:22:31.070Z,61.90
2018-07-31T12:24:59.580Z,62.40
2018-07-31T12:27:28.131Z,62.60
2018-07-31T12:29:56.627Z,58.70
2018-07-31T12:32:25.186Z,59.50
2018-07-31T12:34:53.693Z,61.40
2018-07-31T12:37:22.167Z,60.70
2018-07-31T12:39:50.846Z,62.40
2018-07-31T12:42:19.358Z,59.20
2018-07-31T12:44:47.882Z,59.90
2018-07-31T12:52:12.862Z,62.80
2018-07-31T12:54:41.529Z,59.70
2018-07-31T12:57:10.017Z,57.70
2018-07-31T12:59:38.585Z,60.30
2018-07-31T13:02:07.359Z,61.20
2018-07-31T13:04:36.366Z,64.90
2018-07-31T13:07:04.900Z,60.50
2018-07-31T13:09:33.386Z,58.70
2018-07-31T13:12:02.088Z,59.10
2018-07-31T13:14:30.605Z,59.40
2018-07-31T13:16:59.118Z,60.70
2018-07-31T13:19:27.587Z,61.40
2018-07-31T13:21:56.239Z,60.50
2018-07-31T13:24:24.827Z,61.40
2018-07-31T13:26:53.339Z,62.60
2018-07-31T13:29:21.824Z,62.60
2018-07-31T13:31:50.313Z,64.50
2018-07-31T13:34:18.855Z,64.40
2018-07-31T13:36:47.415Z,61.20
2018-07-31T13:41:44.227Z,61.70
2018-07-31T13:44:12.952Z,64.60
2018-07-31T13:46:41.393Z,64.70
2018-07-31T13:51:39.907Z,64.40
2018-07-31T13:54:08.582Z,60.20
2018-07-31T13:56:37.139Z,60.80
2018-07-31T13:59:06.680Z,61.90
2018-07-31T14:01:35.394Z,58.70
2018-07-31T14:04:03.897Z,59.40
2018-07-31T14:06:32.455Z,62.80
2018-07-31T14:09:00.948Z,59.80
2018-07-31T14:11:29.674Z,59.70
2018-07-31T14:13:58.618Z,58.40
2018-07-31T14:16:27.721Z,58.80
2018-07-31T14:18:56.207Z,58.10
2018-07-31T14:21:24.741Z,57.40
2018-07-31T14:23:53.299Z,60.00
2018-07-31T14:26:21.805Z,57.80
2018-07-31T14:28:50.323Z,57.70
2018-07-31T14:31:18.863Z,57.30
2018-07-31T14:33:47.368Z,57.80
2018-07-31T14:36:15.981Z,57.30
2018-07-31T14:38:44.532Z,56.80
2018-07-31T14:41:13.067Z,57.70
2018-07-31T14:43:41.644Z,56.00
2018-07-31T14:46:10.230Z,57.20
2018-07-31T14:48:38.746Z,58.60
2018-07-31T14:51:07.252Z,57.60
2018-07-31T14:53:35.822Z,54.90
2018-07-31T14:56:04.873Z,58.10
2018-07-31T14:58:33.365Z,56.10
2018-07-31T15:03:30.352Z,55.80
2018-07-31T15:05:58.890Z,55.10
2018-07-31T15:08:27.408Z,57.30
2018-07-31T15:10:55.886Z,56.00
2018-07-31T15:13:24.360Z,56.80
2018-07-31T15:15:55.950Z,58.70
2018-07-31T15:18:25.195Z,56.60
2018-07-31T15:20:54.603Z,55.30
2018-07-31T15:23:23.101Z,58.00
2018-07-31T15:25:51.566Z,57.80
2018-07-31T15:28:20.157Z,60.30
2018-07-31T15:30:48.704Z,62.60
2018-07-31T15:33:17.411Z,61.30
2018-07-31T15:35:46.013Z,58.20
2018-07-31T15:38:14.500Z,57.40
2018-07-31T15:40:43.053Z,55.50
2018-07-31T15:43:11.642Z,55.40
2018-07-31T15:50:36.554Z,58.30
2018-07-31T15:53:05.086Z,56.80
2018-07-31T15:58:01.754Z,62.70
2018-07-31T16:00:30.219Z,59.00
2018-07-31T16:02:58.729Z,63.00
2018-07-31T16:05:27.285Z,60.00
2018-07-31T16:07:55.874Z,63.40
2018-07-31T16:10:24.600Z,63.60
2018-07-31T16:12:53.198Z,62.50
2018-07-31T16:15:21.762Z,64.70
2018-07-31T16:17:50.247Z,66.30
2018-07-31T16:20:18.853Z,64.80
2018-07-31T16:22:47.413Z,65.70
2018-07-31T16:25:16.001Z,65.60
2018-07-31T16:30:12.793Z,65.70
2018-07-31T16:32:41.382Z,64.60
2018-07-31T16:35:09.896Z,65.10
2018-07-31T16:37:38.394Z,65.00
2018-07-31T16:40:06.955Z,63.80
2018-07-31T16:42:35.429Z,64.00
2018-07-31T16:45:03.972Z,64.30
2018-07-31T16:52:28.847Z,61.80
2018-07-31T16:54:57.428Z,60.50
2018-07-31T16:57:25.994Z,63.10
2018-07-31T16:59:54.505Z,63.80
2018-07-31T17:02:23.188Z,64.80
2018-07-31T17:04:52.515Z,64.40
2018-07-31T17:07:21.071Z,64.90
2018-07-31T17:12:17.854Z,64.90
2018-07-31T17:17:14.694Z,64.90
2018-07-31T17:19:43.325Z,65.10
2018-07-31T17:22:11.946Z,65.90
2018-07-31T17:24:41.151Z,66.20
2018-07-31T17:27:09.668Z,66.90
2018-07-31T17:32:06.577Z,67.10
2018-07-31T17:34:35.289Z,67.20
2018-07-31T17:37:03.927Z,66.70
2018-07-31T17:42:01.500Z,67.40
2018-07-31T17:46:58.268Z,67.30
2018-07-31T17:49:26.835Z,67.40
2018-07-31T17:51:56.963Z,67.00
2018-07-31T17:54:25.457Z,67.20
2018-07-31T17:56:53.995Z,67.90
2018-07-31T17:59:22.526Z,67.70
2018-07-31T18:01:51.060Z,68.30
2018-07-31T18:04:19.582Z,67.90
2018-07-31T18:06:48.097Z,68.90
2018-07-31T18:11:44.903Z,69.20
2018-07-31T18:14:13.574Z,68.60
2018-07-31T18:16:42.143Z,67.90
2018-07-31T18:19:10.663Z,69.10
2018-07-31T18:21:39.233Z,67.80
2018-07-31T18:24:08.519Z,68.80
2018-07-31T18:26:37.331Z,66.90
2018-07-31T18:29:05.991Z,67.80
2018-07-31T18:34:16.008Z,70.20
2018-07-31T18:36:44.529Z,72.80
2018-07-31T18:39:13.915Z,72.90
2018-07-31T18:41:43.102Z,73.80
2018-07-31T18:44:18.166Z,72.30
2018-07-31T18:46:48.169Z,71.70
2018-07-31T18:49:16.713Z,71.90
2018-07-31T18:51:45.318Z,73.00
2018-07-31T18:54:14.030Z,73.40
2018-07-31T18:56:42.649Z,73.90
2018-07-31T18:59:11.505Z,73.80
2018-07-31T19:01:40.411Z,73.20
2018-07-31T19:04:09.040Z,73.30
2018-07-31T19:06:37.911Z,73.70
2018-07-31T19:09:10.887Z,73.80
2018-07-31T19:11:41.209Z,74.70
2018-07-31T19:14:10.166Z,75.00
2018-07-31T19:16:38.990Z,75.40
2018-07-31T19:19:07.950Z,75.60
2018-07-31T19:24:07.551Z,73.50
2018-07-31T19:26:36.481Z,74.10
2018-07-31T19:29:05.510Z,75.40
2018-07-31T19:31:34.884Z,76.40
2018-07-31T19:34:03.738Z,76.60
2018-07-31T19:36:33.284Z,76.80
2018-07-31T19:39:02.568Z,76.30
2018-07-31T19:41:31.354Z,76.30
2018-07-31T19:44:00.271Z,75.70
2018-07-31T19:48:58.671Z,75.20
2018-07-31T19:51:27.416Z,75.40
2018-07-31T19:53:56.506Z,75.30
2018-07-31T19:56:25.460Z,75.30
2018-07-31T19:58:54.628Z,75.30
2018-07-31T20:01:23.804Z,75.90
2018-07-31T20:03:53.194Z,76.10
2018-07-31T20:06:22.167Z,76.30
2018-07-31T20:11:20.575Z,76.80
2018-07-31T20:13:49.519Z,76.70
2018-07-31T20:16:19.874Z,77.20
2018-07-31T20:18:49.016Z,76.60
2018-07-31T20:21:17.960Z,76.50
2018-07-31T20:23:46.762Z,76.50
2018-07-31T20:26:15.784Z,76.80
2018-07-31T20:28:44.568Z,77.50
2018-07-31T20:31:13.534Z,77.50
2018-07-31T20:33:43.434Z,77.40
2018-07-31T20:36:12.266Z,77.30
2018-07-31T20:38:41.780Z,78.00
2018-07-31T20:41:10.492Z,78.30
2018-07-31T20:46:08.073Z,80.60
2018-07-31T20:48:37.130Z,79.50
2018-07-31T20:51:05.891Z,79.30
2018-07-31T20:53:34.961Z,79.20
2018-07-31T20:56:03.857Z,79.20
2018-07-31T21:01:00.852Z,79.70
2018-07-31T21:03:29.577Z,79.70
2018-07-31T21:05:58.799Z,80.50
2018-07-31T21:08:27.475Z,80.30
2018-07-31T21:10:55.982Z,81.10
2018-07-31T21:13:24.630Z,82.10
2018-07-31T21:15:53.195Z,82.30
2018-07-31T21:20:50.180Z,81.50
2018-07-31T21:23:18.690Z,82.60
2018-07-31T21:25:47.361Z,82.60
2018-07-31T21:28:16.053Z,83.50
2018-07-31T21:30:44.586Z,83.60
2018-07-31T21:33:13.106Z,84.10
2018-07-31T21:35:41.676Z,84.80
2018-07-31T21:40:38.340Z,84.30
2018-07-31T21:43:06.964Z,84.40
2018-07-31T21:45:35.627Z,84.30
2018-07-31T21:48:04.320Z,84.40
2018-07-31T21:50:32.776Z,86.00
2018-07-31T21:53:01.282Z,86.20
2018-07-31T21:55:29.875Z,86.20
2018-07-31T21:57:58.688Z,86.50
2018-07-31T22:00:32.872Z,86.10
2018-07-31T22:03:01.589Z,86.80
2018-07-31T22:05:30.063Z,86.70
2018-07-31T22:07:58.634Z,86.60
2018-07-31T22:10:27.100Z,86.70
2018-07-31T22:12:55.816Z,87.00
2018-07-31T22:15:24.328Z,87.40
2018-07-31T22:17:52.888Z,86.50
2018-07-31T22:20:21.492Z,85.90
2018-07-31T22:22:50.098Z,86.40
2018-07-31T22:25:18.683Z,86.30
2018-07-31T22:27:47.103Z,85.90
2018-07-31T22:30:15.565Z,86.30
2018-07-31T22:32:44.145Z,86.70
2018-07-31T22:35:12.662Z,85.90
2018-07-31T22:37:41.221Z,86.50
2018-07-31T22:40:09.805Z,87.40
2018-07-31T22:42:38.317Z,87.50
2018-07-31T22:45:06.852Z,87.10
2018-07-31T22:47:35.346Z,86.80
2018-07-31T22:50:04.019Z,87.80
2018-07-31T22:55:00.720Z,86.80
2018-07-31T22:57:29.204Z,87.50
2018-07-31T22:59:57.704Z,88.30
2018-07-31T23:02:26.280Z,88.40
2018-07-31T23:04:54.763Z,88.90
2018-07-31T23:07:23.297Z,89.00
2018-07-31T23:09:57.669Z,89.40
2018-07-31T23:12:26.743Z,89.00
2018-07-31T23:14:55.255Z,89.50
2018-07-31T23:17:23.729Z,89.50
2018-07-31T23:19:52.219Z,88.90
2018-07-31T23:22:32.094Z,89.00
2018-07-31T23:25:00.763Z,88.80
2018-07-31T23:27:29.249Z,88.90
2018-07-31T23:29:57.837Z,88.40
2018-07-31T23:32:26.411Z,87.00
2018-07-31T23:34:54.903Z,86.70
2018-07-31T23:37:23.600Z,85.70
2018-07-31T23:39:52.257Z,85.30
2018-07-31T23:42:20.875Z,85.20
2018-07-31T23:44:49.475Z,84.70
2018-07-31T23:47:17.985Z,84.50
2018-07-31T23:49:47.472Z,84.50
2018-07-31T23:52:15.927Z,84.20
2018-07-31T23:54:44.418Z,84.00
2018-07-31T23:57:12.960Z,83.90
2018-07-31T23:59:41.430Z,83.70
